createdAt,value
2019-03-27T00:00:06.393Z,0.30
2019-03-27T00:01:06.396Z,0.20
2019-03-27T00:02:06.397Z,0.40
2019-03-27T00:03:06.404Z,0.30
2019-03-27T00:04:06.404Z,0.20
2019-03-27T00:05:06.409Z,0.40
2019-03-27T00:06:06.486Z,0.30
2019-03-27T00:07:06.412Z,0.30
2019-03-27T00:08:06.416Z,0.40
2019-03-27T00:09:06.429Z,0.30
2019-03-27T00:10:06.420Z,0.40
2019-03-27T00:11:06.422Z,0.30
2019-03-27T00:12:06.425Z,0.20
2019-03-27T00:13:06.429Z,0.30
2019-03-27T00:14:06.430Z,0.40
2019-03-27T00:15:12.599Z,0.40
2019-03-27T00:16:06.437Z,0.30
2019-03-27T00:17:06.446Z,0.30
2019-03-27T00:18:06.443Z,0.30
2019-03-27T00:19:06.444Z,0.30
2019-03-27T00:20:06.448Z,0.40
2019-03-27T00:21:06.451Z,0.30
2019-03-27T00:22:06.451Z,0.30
2019-03-27T00:23:06.454Z,0.30
2019-03-27T00:24:06.458Z,0.30
2019-03-27T00:25:06.461Z,0.30
2019-03-27T00:26:06.464Z,0.30
2019-03-27T00:27:06.470Z,0.30
2019-03-27T00:28:06.468Z,0.30
2019-03-27T00:29:06.472Z,0.30
2019-03-27T00:30:06.473Z,0.30
2019-03-27T00:31:06.477Z,0.30
2019-03-27T00:32:06.479Z,0.40
2019-03-27T00:33:06.481Z,0.40
2019-03-27T00:34:06.486Z,0.20
2019-03-27T00:35:06.486Z,0.30
2019-03-27T00:36:06.488Z,0.30
2019-03-27T00:37:06.493Z,0.30
2019-03-27T00:38:06.495Z,0.30
2019-03-27T00:39:06.499Z,0.30
2019-03-27T00:40:06.500Z,0.30
2019-03-27T00:41:06.504Z,0.40
2019-03-27T00:42:06.509Z,0.30
2019-03-27T00:43:06.511Z,0.30
2019-03-27T00:44:06.511Z,0.30
2019-03-27T00:45:06.519Z,0.40
2019-03-27T00:46:06.516Z,0.30
2019-03-27T00:47:06.527Z,0.40
2019-03-27T00:48:06.528Z,0.30
2019-03-27T00:49:06.528Z,0.30
2019-03-27T00:50:06.539Z,0.40
2019-03-27T00:51:06.532Z,0.40
2019-03-27T00:52:06.532Z,0.30
2019-03-27T00:53:06.536Z,0.40
2019-03-27T00:54:06.538Z,0.30
2019-03-27T00:55:06.631Z,0.40
2019-03-27T00:56:06.546Z,0.30
2019-03-27T00:57:06.546Z,0.40
2019-03-27T00:58:06.549Z,0.40
2019-03-27T00:59:06.554Z,0.40
2019-03-27T01:00:06.554Z,0.40
2019-03-27T01:01:06.564Z,0.40
2019-03-27T01:02:06.557Z,0.40
2019-03-27T01:03:06.564Z,0.40
2019-03-27T01:04:06.568Z,0.50
2019-03-27T01:05:06.568Z,0.40
2019-03-27T01:06:06.571Z,0.30
2019-03-27T01:07:06.573Z,0.40
2019-03-27T01:08:06.576Z,0.30
2019-03-27T01:09:06.579Z,0.40
2019-03-27T01:10:06.580Z,0.50
2019-03-27T01:11:06.583Z,0.40
2019-03-27T01:12:06.591Z,0.40
2019-03-27T01:13:06.590Z,0.50
2019-03-27T01:14:06.591Z,0.40
2019-03-27T01:15:06.596Z,0.30
2019-03-27T01:16:06.597Z,0.40
2019-03-27T01:17:06.604Z,0.40
2019-03-27T01:18:06.605Z,0.30
2019-03-27T01:19:06.605Z,0.30
2019-03-27T01:20:06.609Z,0.30
2019-03-27T01:21:06.613Z,0.40
2019-03-27T01:22:06.615Z,0.40
2019-03-27T01:23:06.619Z,0.40
2019-03-27T01:24:06.620Z,0.30
2019-03-27T01:25:06.626Z,0.40
2019-03-27T01:26:06.627Z,0.30
2019-03-27T01:27:06.629Z,0.40
2019-03-27T01:28:06.630Z,0.30
2019-03-27T01:29:06.633Z,0.50
2019-03-27T01:30:06.634Z,0.40
2019-03-27T01:31:06.639Z,0.50
2019-03-27T01:32:06.641Z,0.30
2019-03-27T01:33:06.645Z,0.50
2019-03-27T01:34:06.646Z,0.40
2019-03-27T01:35:06.649Z,0.40
2019-03-27T01:36:06.653Z,0.40
2019-03-27T01:37:06.654Z,0.30
2019-03-27T01:38:06.661Z,0.30
2019-03-27T01:39:06.662Z,0.30
2019-03-27T01:40:06.664Z,0.50
2019-03-27T01:41:06.664Z,0.50
2019-03-27T01:42:06.666Z,0.40
2019-03-27T01:43:06.670Z,0.40
2019-03-27T01:44:06.673Z,0.40
2019-03-27T01:45:06.675Z,0.50
2019-03-27T01:46:06.677Z,0.40
2019-03-27T01:47:06.680Z,0.40
2019-03-27T01:48:06.683Z,0.40
2019-03-27T01:49:06.687Z,0.50
2019-03-27T01:50:06.688Z,0.40
2019-03-27T01:51:06.691Z,0.40
2019-03-27T01:52:08.091Z,0.40
2019-03-27T01:53:06.697Z,0.40
2019-03-27T01:54:06.734Z,0.40
2019-03-27T01:55:06.703Z,0.50
2019-03-27T01:56:06.706Z,0.50
2019-03-27T01:57:06.711Z,0.40
2019-03-27T01:58:06.711Z,0.50
2019-03-27T01:59:06.715Z,0.30
2019-03-27T02:00:06.717Z,0.40
2019-03-27T02:01:06.718Z,0.40
2019-03-27T02:02:06.722Z,0.50
2019-03-27T02:03:06.725Z,0.40
2019-03-27T02:04:06.727Z,0.50
2019-03-27T02:05:06.729Z,0.30
2019-03-27T02:06:06.731Z,0.50
2019-03-27T02:07:06.735Z,0.40
2019-03-27T02:08:06.741Z,0.40
2019-03-27T02:09:06.748Z,0.40
2019-03-27T02:10:06.748Z,0.50
2019-03-27T02:11:06.744Z,0.60
2019-03-27T02:12:06.750Z,0.40
2019-03-27T02:13:06.754Z,0.40
2019-03-27T02:14:06.762Z,0.70
2019-03-27T02:15:06.754Z,0.40
2019-03-27T02:16:07.556Z,0.50
2019-03-27T02:17:06.811Z,0.40
2019-03-27T02:18:06.767Z,0.40
2019-03-27T02:19:06.767Z,0.40
2019-03-27T02:20:06.770Z,0.40
2019-03-27T02:21:06.772Z,0.40
2019-03-27T02:22:06.774Z,0.50
2019-03-27T02:23:06.780Z,0.40
2019-03-27T02:24:06.781Z,0.40
2019-03-27T02:25:06.783Z,0.40
2019-03-27T02:26:06.782Z,0.40
2019-03-27T02:27:06.788Z,0.40
2019-03-27T02:28:06.791Z,0.40
2019-03-27T02:29:06.837Z,0.40
2019-03-27T02:30:06.798Z,0.50
2019-03-27T02:31:06.799Z,0.30
2019-03-27T02:32:06.806Z,0.60
2019-03-27T02:33:06.830Z,0.40
2019-03-27T02:34:06.806Z,0.50
2019-03-27T02:35:06.810Z,0.50
2019-03-27T02:36:06.813Z,0.50
2019-03-27T02:37:06.816Z,0.50
2019-03-27T02:38:06.835Z,0.40
2019-03-27T02:39:06.826Z,0.40
2019-03-27T02:40:06.826Z,0.40
2019-03-27T02:41:06.828Z,0.60
2019-03-27T02:42:06.835Z,0.40
2019-03-27T02:43:06.832Z,0.50
2019-03-27T02:44:06.838Z,0.50
2019-03-27T02:45:06.840Z,0.50
2019-03-27T02:46:23.292Z,0.50
2019-03-27T02:47:06.843Z,0.40
2019-03-27T02:48:06.846Z,0.50
2019-03-27T02:49:06.848Z,0.50
2019-03-27T02:50:06.852Z,0.50
2019-03-27T02:51:06.853Z,0.40
2019-03-27T02:52:06.856Z,0.50
2019-03-27T02:53:06.858Z,0.60
2019-03-27T02:54:06.857Z,0.60
2019-03-27T02:55:06.865Z,0.50
2019-03-27T02:56:06.871Z,0.60
2019-03-27T02:57:06.870Z,0.50
2019-03-27T02:58:06.872Z,0.40
2019-03-27T02:59:06.875Z,0.50
2019-03-27T03:00:06.878Z,0.50
2019-03-27T03:01:06.881Z,0.50
2019-03-27T03:02:06.881Z,0.40
2019-03-27T03:03:06.885Z,0.50
2019-03-27T03:04:06.890Z,0.40
2019-03-27T03:05:06.892Z,0.60
2019-03-27T03:06:06.895Z,0.50
2019-03-27T03:07:06.897Z,0.40
2019-03-27T03:08:06.901Z,0.40
2019-03-27T03:09:06.904Z,0.50
2019-03-27T03:10:06.901Z,0.50
2019-03-27T03:11:06.906Z,0.60
2019-03-27T03:12:06.955Z,0.50
2019-03-27T03:13:06.913Z,0.40
2019-03-27T03:14:06.914Z,0.50
2019-03-27T03:15:06.913Z,0.50
2019-03-27T03:16:06.920Z,0.50
2019-03-27T03:17:06.953Z,0.50
2019-03-27T03:18:06.924Z,0.40
2019-03-27T03:19:06.930Z,0.50
2019-03-27T03:20:06.944Z,0.50
2019-03-27T03:21:06.937Z,0.50
2019-03-27T03:22:06.942Z,0.50
2019-03-27T03:23:06.938Z,0.50
2019-03-27T03:24:06.941Z,0.60
2019-03-27T03:25:06.946Z,0.60
2019-03-27T03:26:06.950Z,0.40
2019-03-27T03:27:06.948Z,0.50
2019-03-27T03:28:06.953Z,0.50
2019-03-27T03:29:06.955Z,0.50
2019-03-27T03:30:06.956Z,0.30
2019-03-27T03:31:06.960Z,0.50
2019-03-27T03:32:06.963Z,0.50
2019-03-27T03:33:06.966Z,0.50
2019-03-27T03:34:06.968Z,0.50
2019-03-27T03:35:06.971Z,0.60
2019-03-27T03:36:06.975Z,0.50
2019-03-27T03:37:06.976Z,0.50
2019-03-27T03:38:06.978Z,0.60
2019-03-27T03:39:06.988Z,0.50
2019-03-27T03:40:06.984Z,0.60
2019-03-27T03:41:06.987Z,0.50
2019-03-27T03:42:06.989Z,0.40
2019-03-27T03:43:06.992Z,0.60
2019-03-27T03:44:06.993Z,0.50
2019-03-27T03:45:06.997Z,0.50
2019-03-27T03:46:07.003Z,0.50
2019-03-27T03:47:07.068Z,0.40
2019-03-27T03:48:07.007Z,0.60
2019-03-27T03:49:07.015Z,0.70
2019-03-27T03:50:07.010Z,0.50
2019-03-27T03:51:07.012Z,0.70
2019-03-27T03:52:07.016Z,0.50
2019-03-27T03:53:07.019Z,0.50
2019-03-27T03:54:07.021Z,0.60
2019-03-27T03:55:07.025Z,0.50
2019-03-27T03:56:07.027Z,0.60
2019-03-27T03:57:07.029Z,0.40
2019-03-27T03:58:07.031Z,0.70
2019-03-27T03:59:07.037Z,0.50
2019-03-27T04:00:07.037Z,0.50
2019-03-27T04:01:07.043Z,0.50
2019-03-27T04:02:07.054Z,0.60
2019-03-27T04:03:07.045Z,0.50
2019-03-27T04:04:07.049Z,0.60
2019-03-27T04:05:07.052Z,0.50
2019-03-27T04:06:07.054Z,0.40
2019-03-27T04:07:07.092Z,0.60
2019-03-27T04:08:07.069Z,0.40
2019-03-27T04:09:07.062Z,0.60
2019-03-27T04:10:07.063Z,0.60
2019-03-27T04:11:07.073Z,0.50
2019-03-27T04:12:07.075Z,0.50
2019-03-27T04:13:07.075Z,0.60
2019-03-27T04:14:07.078Z,0.70
2019-03-27T04:15:07.082Z,0.70
2019-03-27T04:16:07.079Z,0.60
2019-03-27T04:17:16.849Z,0.60
2019-03-27T04:18:07.087Z,0.70
2019-03-27T04:19:07.091Z,0.50
2019-03-27T04:20:07.091Z,0.50
2019-03-27T04:21:07.091Z,0.60
2019-03-27T04:22:07.096Z,0.70
2019-03-27T04:23:07.098Z,0.70
2019-03-27T04:24:07.101Z,0.60
2019-03-27T04:25:07.108Z,0.50
2019-03-27T04:26:10.309Z,0.50
2019-03-27T04:27:07.111Z,0.60
2019-03-27T04:28:07.112Z,0.70
2019-03-27T04:29:07.118Z,0.60
2019-03-27T04:30:07.118Z,0.60
2019-03-27T04:31:07.122Z,0.50
2019-03-27T04:32:07.123Z,0.60
2019-03-27T04:33:07.125Z,0.60
2019-03-27T04:34:07.128Z,0.60
2019-03-27T04:35:07.132Z,0.60
2019-03-27T04:36:07.139Z,0.60
2019-03-27T04:37:07.137Z,0.50
2019-03-27T04:38:07.140Z,0.70
2019-03-27T04:39:07.140Z,0.40
2019-03-27T04:40:07.143Z,0.50
2019-03-27T04:41:07.154Z,0.60
2019-03-27T04:42:07.155Z,0.70
2019-03-27T04:43:07.157Z,0.70
2019-03-27T04:44:07.157Z,0.60
2019-03-27T04:45:07.160Z,0.60
2019-03-27T04:46:07.173Z,0.60
2019-03-27T04:47:07.161Z,0.60
2019-03-27T04:48:07.163Z,0.70
2019-03-27T04:49:07.829Z,0.60
2019-03-27T04:50:07.169Z,0.60
2019-03-27T04:51:07.173Z,0.60
2019-03-27T04:52:07.175Z,0.70
2019-03-27T04:53:07.181Z,0.60
2019-03-27T04:54:07.180Z,0.80
2019-03-27T04:55:07.182Z,0.70
2019-03-27T04:56:07.187Z,0.60
2019-03-27T04:57:07.190Z,0.80
2019-03-27T04:58:07.192Z,0.60
2019-03-27T04:59:07.194Z,0.60
2019-03-27T05:00:07.197Z,0.60
2019-03-27T05:01:07.201Z,0.60
2019-03-27T05:02:07.201Z,0.60
2019-03-27T05:03:07.204Z,0.60
2019-03-27T05:04:07.207Z,0.60
2019-03-27T05:05:07.211Z,0.70
2019-03-27T05:06:07.211Z,0.60
2019-03-27T05:07:07.220Z,0.60
2019-03-27T05:08:07.217Z,0.60
2019-03-27T05:09:07.226Z,0.70
2019-03-27T05:10:07.224Z,0.60
2019-03-27T05:11:07.226Z,0.60
2019-03-27T05:12:07.231Z,0.60
2019-03-27T05:13:07.230Z,0.60
2019-03-27T05:14:07.233Z,0.80
2019-03-27T05:15:07.237Z,0.60
2019-03-27T05:16:07.243Z,0.60
2019-03-27T05:17:07.239Z,0.50
2019-03-27T05:18:07.257Z,0.80
2019-03-27T05:19:07.246Z,0.60
2019-03-27T05:20:07.249Z,0.70
2019-03-27T05:21:07.255Z,0.70
2019-03-27T05:22:07.254Z,0.70
2019-03-27T05:23:07.257Z,0.60
2019-03-27T05:24:07.260Z,0.70
2019-03-27T05:25:07.263Z,0.60
2019-03-27T05:26:07.266Z,0.60
2019-03-27T05:27:07.266Z,0.70
2019-03-27T05:28:07.272Z,0.70
2019-03-27T05:29:07.273Z,0.60
2019-03-27T05:30:07.276Z,0.60
2019-03-27T05:31:07.280Z,0.60
2019-03-27T05:32:07.282Z,0.60
2019-03-27T05:33:07.284Z,0.60
2019-03-27T05:34:07.286Z,0.50
2019-03-27T05:35:07.289Z,0.60
2019-03-27T05:36:07.294Z,0.60
2019-03-27T05:37:07.301Z,0.50
2019-03-27T05:38:07.298Z,0.70
2019-03-27T05:39:07.299Z,0.70
2019-03-27T05:40:07.302Z,0.40
2019-03-27T05:41:07.308Z,0.60
2019-03-27T05:42:07.309Z,0.50
2019-03-27T05:43:07.310Z,0.60
2019-03-27T05:44:07.313Z,0.60
2019-03-27T05:45:07.316Z,0.60
2019-03-27T05:46:07.317Z,0.60
2019-03-27T05:47:07.328Z,0.60
2019-03-27T05:48:07.324Z,0.50
2019-03-27T05:49:07.327Z,0.50
2019-03-27T05:50:07.327Z,0.60
2019-03-27T05:51:07.334Z,0.70
2019-03-27T05:52:07.338Z,0.50
2019-03-27T05:53:07.338Z,0.60
2019-03-27T05:54:07.339Z,0.50
2019-03-27T05:55:07.342Z,0.70
2019-03-27T05:56:07.347Z,0.60
2019-03-27T05:57:07.348Z,0.60
2019-03-27T05:58:07.350Z,0.60
2019-03-27T05:59:07.353Z,0.60
2019-03-27T06:00:07.358Z,0.50
2019-03-27T06:01:07.409Z,0.60
2019-03-27T06:02:07.363Z,0.60
2019-03-27T06:03:07.365Z,0.50
2019-03-27T06:04:07.368Z,0.50
2019-03-27T06:05:07.377Z,0.50
2019-03-27T06:06:07.373Z,0.50
2019-03-27T06:07:07.375Z,0.50
2019-03-27T06:08:07.379Z,0.60
2019-03-27T06:09:07.382Z,0.50
2019-03-27T06:10:07.384Z,0.50
2019-03-27T06:11:07.387Z,0.60
2019-03-27T06:12:07.393Z,0.70
2019-03-27T06:13:07.395Z,0.60
2019-03-27T06:14:07.397Z,0.50
2019-03-27T06:15:07.399Z,0.60
2019-03-27T06:16:07.402Z,0.60
2019-03-27T06:17:07.412Z,0.60
2019-03-27T06:18:13.042Z,0.60
2019-03-27T06:19:07.411Z,0.60
2019-03-27T06:20:07.413Z,0.50
2019-03-27T06:21:07.416Z,0.60
2019-03-27T06:22:07.419Z,0.60
2019-03-27T06:23:07.422Z,0.50
2019-03-27T06:24:07.427Z,0.50
2019-03-27T06:25:07.434Z,0.40
2019-03-27T06:26:07.433Z,0.50
2019-03-27T06:27:07.436Z,0.50
2019-03-27T06:28:07.437Z,0.50
2019-03-27T06:29:07.442Z,0.50
2019-03-27T06:30:07.446Z,0.60
2019-03-27T06:31:07.451Z,0.50
2019-03-27T06:32:07.450Z,0.60
2019-03-27T06:33:07.452Z,0.50
2019-03-27T06:34:07.454Z,0.50
2019-03-27T06:35:07.457Z,0.60
2019-03-27T06:36:07.462Z,0.50
2019-03-27T06:37:07.464Z,0.60
2019-03-27T06:38:07.466Z,0.50
2019-03-27T06:39:07.469Z,0.50
2019-03-27T06:40:07.475Z,0.60
2019-03-27T06:41:07.476Z,0.50
2019-03-27T06:42:07.478Z,0.50
2019-03-27T06:43:07.481Z,0.50
2019-03-27T06:44:07.485Z,0.50
2019-03-27T06:45:07.487Z,0.50
2019-03-27T06:46:07.494Z,0.50
2019-03-27T06:47:07.493Z,0.60
2019-03-27T06:48:07.497Z,0.50
2019-03-27T06:49:07.502Z,0.50
2019-03-27T06:50:07.505Z,0.60
2019-03-27T06:51:07.513Z,0.50
2019-03-27T06:52:07.512Z,0.50
2019-03-27T06:53:07.514Z,0.60
2019-03-27T06:54:07.514Z,0.40
2019-03-27T06:55:07.519Z,0.50
2019-03-27T06:56:07.523Z,0.50
2019-03-27T06:57:07.526Z,0.70
2019-03-27T06:58:07.529Z,0.50
2019-03-27T06:59:07.530Z,0.50
2019-03-27T07:00:07.533Z,0.70
2019-03-27T07:01:07.537Z,0.80
2019-03-27T07:02:07.590Z,0.60
2019-03-27T07:03:07.546Z,0.60
2019-03-27T07:04:10.662Z,0.50
2019-03-27T07:05:07.548Z,0.60
2019-03-27T07:06:07.550Z,0.60
2019-03-27T07:07:07.557Z,0.70
2019-03-27T07:08:07.556Z,0.70
2019-03-27T07:09:07.569Z,0.60
2019-03-27T07:10:07.565Z,0.80
2019-03-27T07:11:07.568Z,0.80
2019-03-27T07:12:20.178Z,0.90
2019-03-27T07:13:07.573Z,0.80
2019-03-27T07:14:07.576Z,0.70
2019-03-27T07:15:07.587Z,0.80
2019-03-27T07:16:07.583Z,0.60
2019-03-27T07:17:07.586Z,0.80
2019-03-27T07:18:07.589Z,0.80
2019-03-27T07:19:07.594Z,0.70
2019-03-27T07:20:07.596Z,0.90
2019-03-27T07:21:07.597Z,0.70
2019-03-27T07:22:07.602Z,0.80
2019-03-27T07:23:07.605Z,0.70
2019-03-27T07:24:07.608Z,0.70
2019-03-27T07:25:07.611Z,0.70
2019-03-27T07:26:07.627Z,0.70
2019-03-27T07:27:07.629Z,0.70
2019-03-27T07:28:07.625Z,0.80
2019-03-27T07:29:07.624Z,0.70
2019-03-27T07:30:07.632Z,0.70
2019-03-27T07:31:07.629Z,0.70
2019-03-27T07:32:07.639Z,0.70
2019-03-27T07:33:07.639Z,0.80
2019-03-27T07:34:07.640Z,0.70
2019-03-27T07:35:07.646Z,0.70
2019-03-27T07:36:07.647Z,0.70
2019-03-27T07:37:07.651Z,0.80
2019-03-27T07:38:07.650Z,0.70
2019-03-27T07:39:11.119Z,0.70
2019-03-27T07:40:07.658Z,0.70
2019-03-27T07:41:07.664Z,0.70
2019-03-27T07:42:07.664Z,0.70
2019-03-27T07:43:07.727Z,0.60
2019-03-27T07:44:07.673Z,0.80
2019-03-27T07:45:07.671Z,0.60
2019-03-27T07:46:07.676Z,0.60
2019-03-27T07:47:07.678Z,0.70
2019-03-27T07:48:07.694Z,0.60
2019-03-27T07:49:07.692Z,0.50
2019-03-27T07:50:07.690Z,0.50
2019-03-27T07:51:07.698Z,0.80
2019-03-27T07:52:07.696Z,0.70
2019-03-27T07:53:07.729Z,0.70
2019-03-27T07:54:07.703Z,0.50
2019-03-27T07:55:18.782Z,0.60
2019-03-27T07:56:07.708Z,0.70
2019-03-27T07:57:07.713Z,0.70
2019-03-27T07:58:07.720Z,0.70
2019-03-27T07:59:07.722Z,0.50
2019-03-27T08:00:07.723Z,0.70
2019-03-27T08:01:07.760Z,0.90
2019-03-27T08:02:07.730Z,0.70
2019-03-27T08:03:07.733Z,0.80
2019-03-27T08:04:07.734Z,0.50
2019-03-27T08:05:07.737Z,0.60
2019-03-27T08:06:07.740Z,0.70
2019-03-27T08:07:07.793Z,0.60
2019-03-27T08:08:07.744Z,0.50
2019-03-27T08:09:07.750Z,0.70
2019-03-27T08:10:07.755Z,0.50
2019-03-27T08:11:07.757Z,0.50
2019-03-27T08:12:07.761Z,0.60
2019-03-27T08:13:07.776Z,0.60
2019-03-27T08:14:07.770Z,0.50
2019-03-27T08:15:07.769Z,0.70
2019-03-27T08:16:07.772Z,0.70
2019-03-27T08:17:07.777Z,0.60
2019-03-27T08:18:07.784Z,0.90
2019-03-27T08:19:08.297Z,0.90
2019-03-27T08:20:07.794Z,0.80
2019-03-27T08:21:07.810Z,0.70
2019-03-27T08:22:07.816Z,0.70
2019-03-27T08:23:07.823Z,0.70
2019-03-27T08:24:07.818Z,0.90
2019-03-27T08:25:07.805Z,0.90
2019-03-27T08:26:07.806Z,0.90
2019-03-27T08:27:07.911Z,1.00
2019-03-27T08:28:07.815Z,0.90
2019-03-27T08:29:07.857Z,0.90
2019-03-27T08:30:07.867Z,0.90
2019-03-27T08:31:07.880Z,0.80
2019-03-27T08:32:07.879Z,0.80
2019-03-27T08:33:07.879Z,0.90
2019-03-27T08:34:07.874Z,0.80
2019-03-27T08:35:07.864Z,0.90
2019-03-27T08:36:07.853Z,0.70
2019-03-27T08:37:07.841Z,1.00
2019-03-27T08:38:07.843Z,0.80
2019-03-27T08:39:07.861Z,0.90
2019-03-27T08:40:07.851Z,0.70
2019-03-27T08:41:07.865Z,1.00
2019-03-27T08:42:07.878Z,1.10
2019-03-27T08:43:20.749Z,0.80
2019-03-27T08:44:07.887Z,0.90
2019-03-27T08:45:07.880Z,0.70
2019-03-27T08:46:07.930Z,1.00
2019-03-27T08:47:07.872Z,0.80
2019-03-27T08:48:07.877Z,0.80
2019-03-27T08:49:20.721Z,0.80
2019-03-27T08:50:07.883Z,1.00
2019-03-27T08:51:07.914Z,1.00
2019-03-27T08:52:07.939Z,0.90
2019-03-27T08:53:07.961Z,0.80
2019-03-27T08:54:07.963Z,0.90
2019-03-27T08:55:07.950Z,0.90
2019-03-27T08:56:07.920Z,0.70
2019-03-27T08:57:07.927Z,0.90
2019-03-27T08:58:07.929Z,0.80
2019-03-27T08:59:07.934Z,0.90
2019-03-27T09:00:07.938Z,0.80
2019-03-27T09:01:07.932Z,0.80
2019-03-27T09:02:07.965Z,0.80
2019-03-27T09:03:07.956Z,0.90
2019-03-27T09:04:07.977Z,0.70
2019-03-27T09:05:07.977Z,1.00
2019-03-27T09:06:07.962Z,0.80
2019-03-27T09:07:07.989Z,0.90
2019-03-27T09:08:07.947Z,1.20
2019-03-27T09:09:07.943Z,0.80
2019-03-27T09:10:08.000Z,0.80
2019-03-27T09:11:07.947Z,0.90
2019-03-27T09:12:07.981Z,0.90
2019-03-27T09:13:07.975Z,0.80
2019-03-27T09:14:07.990Z,0.90
2019-03-27T09:15:07.964Z,0.90
2019-03-27T09:16:07.981Z,0.90
2019-03-27T09:17:07.998Z,0.80
2019-03-27T09:18:08.017Z,0.90
2019-03-27T09:19:08.029Z,0.90
2019-03-27T09:20:08.034Z,0.80
2019-03-27T09:21:08.048Z,0.70
2019-03-27T09:22:08.044Z,1.00
2019-03-27T09:23:08.044Z,0.80
2019-03-27T09:24:08.039Z,0.90
2019-03-27T09:25:08.041Z,0.80
2019-03-27T09:26:08.047Z,0.80
2019-03-27T09:27:08.079Z,0.80
2019-03-27T09:28:08.014Z,0.80
2019-03-27T09:29:08.529Z,0.80
2019-03-27T09:30:08.025Z,0.90
2019-03-27T09:31:08.074Z,0.80
2019-03-27T09:32:08.109Z,0.70
2019-03-27T09:33:08.038Z,1.00
2019-03-27T09:34:08.033Z,0.90
2019-03-27T09:35:08.040Z,1.00
2019-03-27T09:36:08.149Z,1.20
2019-03-27T09:37:08.055Z,0.90
2019-03-27T09:38:08.040Z,1.00
2019-03-27T09:39:08.043Z,1.10
2019-03-27T09:40:08.053Z,1.10
2019-03-27T09:41:08.072Z,0.90
2019-03-27T09:42:08.065Z,1.00
2019-03-27T09:43:08.057Z,1.10
2019-03-27T09:44:08.079Z,1.00
2019-03-27T09:45:08.066Z,0.90
2019-03-27T09:46:08.156Z,1.00
2019-03-27T09:47:08.116Z,1.00
2019-03-27T09:48:08.135Z,1.10
2019-03-27T09:49:08.138Z,0.70
2019-03-27T09:50:08.170Z,0.90
2019-03-27T09:51:08.123Z,1.00
2019-03-27T09:52:08.147Z,0.80
2019-03-27T09:53:08.143Z,0.70
2019-03-27T09:54:08.195Z,0.90
2019-03-27T09:55:08.151Z,0.90
2019-03-27T09:56:18.321Z,1.00
2019-03-27T09:57:08.156Z,0.80
2019-03-27T09:58:08.177Z,1.10
2019-03-27T09:59:08.167Z,0.90
2019-03-27T10:00:08.143Z,1.00
2019-03-27T10:01:08.133Z,0.80
2019-03-27T10:02:08.154Z,0.90
2019-03-27T10:03:08.164Z,0.80
2019-03-27T10:04:08.166Z,0.90
2019-03-27T10:05:08.172Z,0.80
2019-03-27T10:06:08.164Z,0.70
2019-03-27T10:07:08.132Z,0.70
2019-03-27T10:08:08.130Z,0.90
2019-03-27T10:09:08.135Z,0.70
2019-03-27T10:10:08.139Z,0.80
2019-03-27T10:11:08.189Z,0.90
2019-03-27T10:12:08.146Z,0.80
2019-03-27T10:13:08.171Z,0.90
2019-03-27T10:14:08.176Z,0.80
2019-03-27T10:15:08.176Z,0.90
2019-03-27T10:16:08.175Z,0.80
2019-03-27T10:17:08.183Z,0.70
2019-03-27T10:18:08.181Z,0.60
2019-03-27T10:19:08.183Z,0.80
2019-03-27T10:20:08.170Z,0.70
2019-03-27T10:21:08.182Z,0.80
2019-03-27T10:22:08.193Z,0.70
2019-03-27T10:23:08.210Z,0.60
2019-03-27T10:24:08.223Z,0.80
2019-03-27T10:25:08.221Z,0.70
2019-03-27T10:26:08.263Z,0.90
2019-03-27T10:27:08.250Z,0.60
2019-03-27T10:28:08.254Z,0.60
2019-03-27T10:29:08.252Z,0.90
2019-03-27T10:30:08.271Z,0.80
2019-03-27T10:31:08.238Z,0.90
2019-03-27T10:32:08.255Z,0.90
2019-03-27T10:33:08.257Z,0.90
2019-03-27T10:34:08.275Z,1.00
2019-03-27T10:35:08.308Z,0.80
2019-03-27T10:36:08.284Z,0.90
2019-03-27T10:37:08.286Z,0.80
2019-03-27T10:38:08.277Z,0.90
2019-03-27T10:39:08.265Z,0.80
2019-03-27T10:40:08.274Z,0.80
2019-03-27T10:41:08.285Z,0.80
2019-03-27T10:42:08.264Z,0.90
2019-03-27T10:43:08.251Z,0.80
2019-03-27T10:44:08.255Z,0.60
2019-03-27T10:45:08.293Z,0.80
2019-03-27T10:46:08.267Z,0.80
2019-03-27T10:47:08.273Z,0.80
2019-03-27T10:48:08.373Z,0.70
2019-03-27T10:49:08.326Z,0.70
2019-03-27T10:50:17.414Z,0.70
2019-03-27T10:51:08.284Z,0.80
2019-03-27T10:52:08.384Z,0.80
2019-03-27T10:53:08.284Z,0.80
2019-03-27T10:54:08.299Z,0.80
2019-03-27T10:55:08.299Z,0.70
2019-03-27T10:56:08.289Z,0.80
2019-03-27T10:57:08.289Z,0.60
2019-03-27T10:58:08.293Z,0.70
2019-03-27T10:59:08.345Z,0.70
2019-03-27T11:00:08.297Z,0.70
2019-03-27T11:01:08.349Z,0.80
2019-03-27T11:02:08.355Z,0.60
2019-03-27T11:03:08.306Z,0.50
2019-03-27T11:04:08.309Z,0.70
2019-03-27T11:05:08.317Z,0.60
2019-03-27T11:06:08.320Z,0.60
2019-03-27T11:07:08.372Z,0.60
2019-03-27T11:08:11.274Z,0.60
2019-03-27T11:09:08.324Z,0.60
2019-03-27T11:10:08.335Z,0.80
2019-03-27T11:11:08.332Z,0.60
2019-03-27T11:12:08.437Z,0.50
2019-03-27T11:13:08.415Z,0.70
2019-03-27T11:14:08.352Z,0.80
2019-03-27T11:15:08.344Z,0.80
2019-03-27T11:16:08.371Z,0.70
2019-03-27T11:17:08.472Z,0.70
2019-03-27T11:18:08.355Z,0.60
2019-03-27T11:19:08.407Z,0.80
2019-03-27T11:20:08.362Z,0.70
2019-03-27T11:21:08.417Z,0.60
2019-03-27T11:22:08.367Z,0.70
2019-03-27T11:23:08.418Z,0.50
2019-03-27T11:24:08.374Z,0.60
2019-03-27T11:25:08.377Z,0.70
2019-03-27T11:26:08.384Z,0.80
2019-03-27T11:27:08.384Z,0.70
2019-03-27T11:28:08.404Z,0.60
2019-03-27T11:29:08.389Z,0.50
2019-03-27T11:30:08.393Z,0.50
2019-03-27T11:31:08.447Z,0.50
2019-03-27T11:32:08.398Z,0.70
2019-03-27T11:33:08.448Z,0.60
2019-03-27T11:34:08.403Z,0.50
2019-03-27T11:35:08.410Z,0.50
2019-03-27T11:36:08.416Z,0.50
2019-03-27T11:37:08.416Z,0.50
2019-03-27T11:38:08.418Z,0.60
2019-03-27T11:39:08.419Z,0.60
2019-03-27T11:40:08.437Z,0.50
2019-03-27T11:41:08.438Z,0.60
2019-03-27T11:42:08.431Z,0.50
2019-03-27T11:43:08.446Z,0.30
2019-03-27T11:44:08.440Z,0.40
2019-03-27T11:45:08.444Z,0.50
2019-03-27T11:46:08.447Z,0.40
2019-03-27T11:47:08.446Z,0.40
2019-03-27T11:48:08.467Z,0.40
2019-03-27T11:49:08.453Z,0.40
2019-03-27T11:50:08.542Z,0.40
2019-03-27T11:51:08.458Z,0.40
2019-03-27T11:52:08.466Z,0.40
2019-03-27T11:53:08.471Z,0.40
2019-03-27T11:54:08.469Z,0.40
2019-03-27T11:55:08.473Z,0.30
2019-03-27T11:56:08.483Z,0.40
2019-03-27T11:57:08.480Z,0.40
2019-03-27T11:58:08.483Z,0.50
2019-03-27T11:59:08.484Z,0.30
2019-03-27T12:00:08.486Z,0.40
2019-03-27T12:01:08.593Z,0.40
2019-03-27T12:02:08.498Z,0.40
2019-03-27T12:03:08.504Z,0.30
2019-03-27T12:04:08.517Z,0.40
2019-03-27T12:05:08.508Z,0.40
2019-03-27T12:06:08.523Z,0.40
2019-03-27T12:07:08.517Z,0.40
2019-03-27T12:08:08.521Z,0.30
2019-03-27T12:09:08.548Z,0.40
2019-03-27T12:10:08.577Z,0.40
2019-03-27T12:11:08.637Z,0.40
2019-03-27T12:12:08.577Z,0.40
2019-03-27T12:13:08.576Z,0.30
2019-03-27T12:14:08.555Z,0.40
2019-03-27T12:15:08.550Z,0.40
2019-03-27T12:16:08.541Z,0.30
2019-03-27T12:17:08.542Z,0.30
2019-03-27T12:18:08.569Z,0.40
2019-03-27T12:19:08.599Z,0.40
2019-03-27T12:20:08.571Z,0.40
2019-03-27T12:21:08.558Z,0.30
2019-03-27T12:22:08.559Z,0.30
2019-03-27T12:23:08.562Z,0.30
2019-03-27T12:24:08.580Z,0.40
2019-03-27T12:25:08.575Z,0.30
2019-03-27T12:26:08.570Z,0.30
2019-03-27T12:27:08.673Z,0.30
2019-03-27T12:28:08.578Z,0.30
2019-03-27T12:29:08.582Z,0.40
2019-03-27T12:30:08.603Z,0.30
2019-03-27T12:31:08.610Z,0.30
2019-03-27T12:32:08.591Z,0.40
2019-03-27T12:33:08.591Z,0.30
2019-03-27T12:34:08.594Z,0.40
2019-03-27T12:35:08.598Z,0.50
2019-03-27T12:36:08.610Z,0.60
2019-03-27T12:37:08.617Z,0.60
2019-03-27T12:38:08.606Z,0.40
2019-03-27T12:39:08.613Z,0.30
2019-03-27T12:40:12.012Z,0.30
2019-03-27T12:41:08.674Z,0.30
2019-03-27T12:42:08.619Z,0.40
2019-03-27T12:43:08.631Z,0.50
2019-03-27T12:44:08.625Z,0.30
2019-03-27T12:45:08.629Z,0.40
2019-03-27T12:46:08.630Z,0.50
2019-03-27T12:47:08.632Z,0.30
2019-03-27T12:48:08.651Z,0.40
2019-03-27T12:49:08.646Z,0.40
2019-03-27T12:50:08.657Z,0.40
2019-03-27T12:51:13.067Z,0.50
2019-03-27T12:52:08.719Z,0.30
2019-03-27T12:53:08.727Z,0.40
2019-03-27T12:54:08.697Z,0.40
2019-03-27T12:55:08.680Z,0.50
2019-03-27T12:56:08.679Z,0.40
2019-03-27T12:57:08.694Z,0.50
2019-03-27T12:58:11.599Z,0.80
2019-03-27T12:59:08.671Z,0.40
2019-03-27T13:00:08.673Z,0.40
2019-03-27T13:01:08.679Z,0.50
2019-03-27T13:02:08.679Z,0.40
2019-03-27T13:03:08.734Z,0.40
2019-03-27T13:04:08.775Z,0.40
2019-03-27T13:05:08.707Z,0.40
2019-03-27T13:06:08.692Z,0.40
2019-03-27T13:07:08.696Z,0.40
2019-03-27T13:08:08.698Z,0.50
2019-03-27T13:09:08.703Z,0.50
2019-03-27T13:10:08.716Z,0.40
2019-03-27T13:11:08.740Z,0.40
2019-03-27T13:12:08.731Z,0.50
2019-03-27T13:13:08.716Z,0.40
2019-03-27T13:14:08.718Z,0.60
2019-03-27T13:15:08.727Z,0.40
2019-03-27T13:16:08.732Z,0.40
2019-03-27T13:17:08.726Z,0.40
2019-03-27T13:18:08.731Z,0.50